createdAt,value
2023-04-15T00:00:01.332Z,10.33
2023-04-15T00:02:28.597Z,10.32
2023-04-15T00:04:55.174Z,10.29
2023-04-15T00:07:21.476Z,10.25
2023-04-15T00:09:47.733Z,10.18
2023-04-15T00:12:14.019Z,10.10
2023-04-15T00:14:40.353Z,10.02
2023-04-15T00:17:06.622Z,9.95
2023-04-15T00:19:32.881Z,9.89
2023-04-15T00:21:59.377Z,9.83
2023-04-15T00:24:25.739Z,9.79
2023-04-15T00:26:52.067Z,9.75
2023-04-15T00:29:18.481Z,9.71
2023-04-15T00:31:44.827Z,9.67
2023-04-15T00:34:11.686Z,9.63
2023-04-15T00:36:37.953Z,9.57
2023-04-15T00:39:04.237Z,9.51
2023-04-15T00:41:30.510Z,9.45
2023-04-15T00:43:56.753Z,9.40
2023-04-15T00:46:23.388Z,9.37
2023-04-15T00:48:50.634Z,9.34
2023-04-15T00:51:16.929Z,9.31
2023-04-15T00:53:43.215Z,9.29
2023-04-15T00:56:09.614Z,9.26
2023-04-15T00:58:36.140Z,9.23
2023-04-15T01:01:03.214Z,9.19
2023-04-15T01:03:30.004Z,9.15
2023-04-15T01:05:56.518Z,9.11
2023-04-15T01:08:23.532Z,9.08
2023-04-15T01:10:50.170Z,9.05
2023-04-15T01:13:16.489Z,9.03
2023-04-15T01:15:43.177Z,9.02
2023-04-15T01:18:09.548Z,8.99
2023-04-15T01:20:38.094Z,8.97
2023-04-15T01:23:04.493Z,8.96
2023-04-15T01:25:34.244Z,8.95
2023-04-15T01:28:00.790Z,8.97
2023-04-15T01:30:27.434Z,8.98
2023-04-15T01:32:54.130Z,8.99
2023-04-15T01:35:22.100Z,9.00
2023-04-15T01:37:51.259Z,9.02
2023-04-15T01:40:17.800Z,9.01
2023-04-15T01:42:44.181Z,9.00
2023-04-15T01:45:10.631Z,9.01
2023-04-15T01:47:37.769Z,9.01
2023-04-15T01:50:04.691Z,9.02
2023-04-15T01:52:31.072Z,9.04
2023-04-15T01:54:57.406Z,9.04
2023-04-15T01:57:23.762Z,9.05
2023-04-15T01:59:51.291Z,9.06
2023-04-15T02:02:17.634Z,9.05
2023-04-15T02:04:44.066Z,9.06
2023-04-15T02:07:10.314Z,9.06
2023-04-15T02:09:36.688Z,9.06
2023-04-15T02:12:02.995Z,9.08
2023-04-15T02:14:29.246Z,9.08
2023-04-15T02:16:55.699Z,9.08
2023-04-15T02:19:21.997Z,9.06
2023-04-15T02:21:48.246Z,9.05
2023-04-15T02:24:17.326Z,9.02
2023-04-15T02:26:43.637Z,9.00
2023-04-15T02:29:09.893Z,8.96
2023-04-15T02:31:36.207Z,8.94
2023-04-15T02:34:02.564Z,8.91
2023-04-15T02:36:28.797Z,8.89
2023-04-15T02:38:55.219Z,8.86
2023-04-15T02:41:22.154Z,8.84
2023-04-15T02:43:48.397Z,8.82
2023-04-15T02:46:14.910Z,8.81
2023-04-15T02:48:41.275Z,8.78
2023-04-15T02:51:18.667Z,8.75
2023-04-15T02:53:45.614Z,8.71
2023-04-15T02:56:12.050Z,8.68
2023-04-15T02:58:38.972Z,8.65
2023-04-15T03:01:05.346Z,8.62
2023-04-15T03:03:31.833Z,8.58
2023-04-15T03:05:58.253Z,8.56
2023-04-15T03:08:24.614Z,8.54
2023-04-15T03:10:51.021Z,8.52
2023-04-15T03:13:17.460Z,8.50
2023-04-15T03:15:46.100Z,8.48
2023-04-15T03:18:12.517Z,8.47
2023-04-15T03:20:40.078Z,8.45
2023-04-15T03:23:06.685Z,8.45
2023-04-15T03:25:33.038Z,8.43
2023-04-15T03:28:00.041Z,8.40
2023-04-15T03:30:26.387Z,8.35
2023-04-15T03:32:52.744Z,8.32
2023-04-15T03:35:19.213Z,8.30
2023-04-15T03:37:45.485Z,8.26
2023-04-15T03:40:11.983Z,8.23
2023-04-15T03:42:38.263Z,8.20
2023-04-15T03:45:04.979Z,8.18
2023-04-15T03:47:31.223Z,8.17
2023-04-15T03:49:57.551Z,8.16
2023-04-15T03:52:23.771Z,8.17
2023-04-15T03:54:50.031Z,8.16
2023-04-15T03:57:16.247Z,8.15
2023-04-15T03:59:42.511Z,8.14
2023-04-15T04:02:08.898Z,8.15
2023-04-15T04:04:35.319Z,8.15
2023-04-15T04:07:01.659Z,8.14
2023-04-15T04:09:27.973Z,8.11
2023-04-15T04:11:54.300Z,8.08
2023-04-15T04:14:20.767Z,8.03
2023-04-15T04:16:46.984Z,7.97
2023-04-15T04:19:13.335Z,7.89
2023-04-15T04:21:39.667Z,7.84
2023-04-15T04:24:05.907Z,7.84
2023-04-15T04:26:32.130Z,7.83
2023-04-15T04:28:58.544Z,7.81
2023-04-15T04:31:25.120Z,7.83
2023-04-15T04:33:51.379Z,7.84
2023-04-15T04:36:17.742Z,7.88
2023-04-15T04:38:44.036Z,7.93
2023-04-15T04:41:10.325Z,7.98
2023-04-15T04:43:36.621Z,8.02
2023-04-15T04:46:02.942Z,8.07
2023-04-15T04:48:29.239Z,8.13
2023-04-15T04:50:55.520Z,8.19
2023-04-15T04:53:21.781Z,8.25
2023-04-15T04:55:48.075Z,8.30
2023-04-15T04:58:14.337Z,8.36
2023-04-15T05:00:40.661Z,8.39
2023-04-15T05:03:07.316Z,8.42
2023-04-15T05:05:33.800Z,8.46
2023-04-15T05:08:00.152Z,8.51
2023-04-15T05:10:26.501Z,8.53
2023-04-15T05:12:52.793Z,8.55
2023-04-15T05:15:19.073Z,8.55
2023-04-15T05:17:45.365Z,8.57
2023-04-15T05:20:11.922Z,8.63
2023-04-15T05:22:38.335Z,8.70
2023-04-15T05:25:04.809Z,8.78
2023-04-15T05:27:31.190Z,8.85
2023-04-15T05:29:57.588Z,8.93
2023-04-15T05:32:23.908Z,9.01
2023-04-15T05:34:50.288Z,9.07
2023-04-15T05:37:16.529Z,9.13
2023-04-15T05:39:42.884Z,9.18
2023-04-15T05:42:09.175Z,9.24
2023-04-15T05:44:35.567Z,9.31
2023-04-15T05:47:01.848Z,9.40
2023-04-15T05:49:28.464Z,9.51
2023-04-15T05:51:54.943Z,9.62
2023-04-15T05:54:21.314Z,9.75
2023-04-15T05:56:47.864Z,9.86
2023-04-15T05:59:14.274Z,9.96
2023-04-15T06:01:40.527Z,10.06
2023-04-15T06:04:06.865Z,10.17
2023-04-15T06:06:33.185Z,10.32
2023-04-15T06:08:59.870Z,10.52
2023-04-15T06:11:26.511Z,10.66
2023-04-15T06:13:53.186Z,10.79
2023-04-15T06:16:19.832Z,10.93
2023-04-15T06:18:46.221Z,11.05
2023-04-15T06:21:12.520Z,11.08
2023-04-15T06:23:38.827Z,11.10
2023-04-15T06:26:05.095Z,11.14
2023-04-15T06:28:31.410Z,11.18
2023-04-15T06:31:00.860Z,11.22
2023-04-15T06:33:27.259Z,11.30
2023-04-15T06:35:53.594Z,11.45
2023-04-15T06:38:20.999Z,11.56
2023-04-15T06:40:48.459Z,11.65
2023-04-15T06:46:09.814Z,11.82
2023-04-15T06:48:36.479Z,12.00
2023-04-15T06:51:03.558Z,12.24
2023-04-15T06:53:32.133Z,12.41
2023-04-15T06:56:05.242Z,12.52
2023-04-15T06:58:35.206Z,12.56
2023-04-15T07:01:02.143Z,12.54
2023-04-15T07:03:33.180Z,12.57
2023-04-15T07:06:00.995Z,12.56
2023-04-15T07:08:41.785Z,12.51
2023-04-15T07:11:19.072Z,12.54
2023-04-15T07:13:47.150Z,12.61
2023-04-15T07:16:18.553Z,12.71
2023-04-15T07:18:45.078Z,12.79
2023-04-15T07:21:17.254Z,12.84
2023-04-15T07:23:44.080Z,12.86
2023-04-15T07:26:10.516Z,12.83
2023-04-15T07:28:36.802Z,12.90
2023-04-15T07:31:03.528Z,13.02
2023-04-15T07:33:29.943Z,13.17
2023-04-15T07:35:56.209Z,13.28
2023-04-15T07:38:22.566Z,13.29
2023-04-15T07:40:52.620Z,13.28
2023-04-15T07:43:20.559Z,13.33
2023-04-15T07:45:46.990Z,13.39
2023-04-15T07:48:13.411Z,13.41
2023-04-15T07:50:39.869Z,13.39
2023-04-15T07:53:06.422Z,13.33
2023-04-15T07:55:32.793Z,13.25
2023-04-15T07:57:59.156Z,13.18
2023-04-15T08:00:25.521Z,13.12
2023-04-15T08:02:52.147Z,13.10
2023-04-15T08:05:19.123Z,13.07
2023-04-15T08:07:45.575Z,13.05
2023-04-15T08:10:12.004Z,13.07
2023-04-15T08:12:38.472Z,13.12
2023-04-15T08:15:05.132Z,13.16
2023-04-15T08:17:31.530Z,13.14
2023-04-15T08:19:59.440Z,13.09
2023-04-15T08:22:25.981Z,13.10
2023-04-15T08:24:52.261Z,13.11
2023-04-15T08:27:18.573Z,13.12
2023-04-15T08:29:44.845Z,13.12
2023-04-15T08:32:11.249Z,13.12
2023-04-15T08:34:37.552Z,13.12
2023-04-15T08:37:03.861Z,13.10
2023-04-15T08:39:30.301Z,13.04
2023-04-15T08:42:03.697Z,12.95
2023-04-15T08:44:32.586Z,12.87
2023-04-15T08:47:02.497Z,12.83
2023-04-15T08:49:29.407Z,12.83
2023-04-15T08:51:57.867Z,12.84
2023-04-15T08:54:24.709Z,12.83
2023-04-15T08:56:51.971Z,12.83
2023-04-15T08:59:19.129Z,12.83
2023-04-15T09:01:45.622Z,12.82
2023-04-15T09:04:12.079Z,12.85
2023-04-15T09:06:39.032Z,12.87
2023-04-15T09:09:05.354Z,12.89
2023-04-15T09:11:40.069Z,12.92
2023-04-15T09:14:06.625Z,12.99
2023-04-15T09:16:53.466Z,13.05
2023-04-15T09:19:20.682Z,13.14
2023-04-15T09:21:47.298Z,13.19
2023-04-15T09:24:13.644Z,13.25
2023-04-15T09:26:39.975Z,13.33
2023-04-15T09:29:07.671Z,13.40
2023-04-15T09:31:34.692Z,13.44
2023-04-15T09:34:01.567Z,13.44
2023-04-15T09:36:28.040Z,13.48
2023-04-15T09:38:55.960Z,13.58
2023-04-15T09:41:22.592Z,13.67
2023-04-15T09:43:48.895Z,13.79
2023-04-15T09:46:15.296Z,13.97
2023-04-15T09:48:41.969Z,14.17
2023-04-15T09:51:08.356Z,14.39
2023-04-15T09:53:35.579Z,14.59
2023-04-15T09:56:02.093Z,14.72
2023-04-15T09:58:32.810Z,14.85
2023-04-15T10:00:59.845Z,14.98
2023-04-15T10:03:27.598Z,15.15
2023-04-15T10:05:55.352Z,15.36
2023-04-15T10:08:22.984Z,15.59
2023-04-15T10:10:49.276Z,15.81
2023-04-15T10:13:17.040Z,16.03
2023-04-15T10:15:44.100Z,16.32
2023-04-15T10:18:11.004Z,16.66
2023-04-15T10:20:38.165Z,17.01
2023-04-15T10:23:05.920Z,17.33
2023-04-15T10:25:33.504Z,17.56
2023-04-15T10:27:59.976Z,17.59
2023-04-15T10:30:26.783Z,17.69
2023-04-15T10:32:53.726Z,17.93
2023-04-15T10:35:20.742Z,18.15
2023-04-15T10:37:47.261Z,18.41
2023-04-15T10:40:23.540Z,18.68
2023-04-15T10:42:49.921Z,18.89
2023-04-15T10:45:16.414Z,19.04
2023-04-15T10:47:42.918Z,19.18
2023-04-15T10:50:10.229Z,19.20
2023-04-15T10:52:39.964Z,19.10
2023-04-15T10:55:12.230Z,19.01
2023-04-15T10:57:39.847Z,18.89
2023-04-15T11:00:10.271Z,18.71
2023-04-15T11:02:53.843Z,18.71
2023-04-15T11:05:21.369Z,18.93
2023-04-15T11:07:49.337Z,19.41
2023-04-15T11:10:24.797Z,19.93
2023-04-15T11:12:52.329Z,20.27
2023-04-15T11:15:28.119Z,20.43
2023-04-15T11:17:54.888Z,20.29
2023-04-15T11:20:21.153Z,20.05
2023-04-15T11:22:51.224Z,20.03
2023-04-15T11:25:24.060Z,20.07
2023-04-15T11:27:50.360Z,20.17
2023-04-15T11:30:20.636Z,20.31
2023-04-15T11:32:47.643Z,20.42
2023-04-15T11:35:13.982Z,20.86
2023-04-15T11:37:40.384Z,21.84
2023-04-15T11:40:08.192Z,22.47
2023-04-15T11:42:48.563Z,22.92
2023-04-15T11:45:16.163Z,23.24
2023-04-15T11:47:42.522Z,23.37
2023-04-15T11:50:21.956Z,23.60
2023-04-15T11:52:58.720Z,23.68
2023-04-15T11:55:25.441Z,23.44
2023-04-15T11:58:10.799Z,23.40
2023-04-15T12:00:37.834Z,23.31
2023-04-15T12:03:13.882Z,23.27
2023-04-15T12:05:59.057Z,23.13
2023-04-15T12:08:25.463Z,22.79
2023-04-15T12:10:58.148Z,22.41
2023-04-15T12:13:26.954Z,22.29
2023-04-15T12:15:54.925Z,22.10
2023-04-15T12:18:21.292Z,21.83
2023-04-15T12:20:47.658Z,21.40
2023-04-15T12:23:18.483Z,20.94
2023-04-15T12:25:50.593Z,20.61
2023-04-15T12:28:16.872Z,20.19
2023-04-15T12:30:50.163Z,19.79
2023-04-15T12:33:17.607Z,19.44
2023-04-15T12:35:43.920Z,19.10
2023-04-15T12:38:10.273Z,18.76
2023-04-15T12:40:36.722Z,18.37
2023-04-15T12:43:03.137Z,18.03
2023-04-15T12:45:30.028Z,17.70
2023-04-15T12:47:56.416Z,17.43
2023-04-15T12:50:22.721Z,17.25
2023-04-15T12:52:49.107Z,17.09
2023-04-15T12:55:16.073Z,16.99
2023-04-15T12:57:42.459Z,16.91
2023-04-15T13:00:09.128Z,16.87
2023-04-15T13:02:35.814Z,16.82
2023-04-15T13:05:02.245Z,16.73
2023-04-15T13:07:28.647Z,16.62
2023-04-15T13:09:54.922Z,16.53
2023-04-15T13:12:21.214Z,16.36
2023-04-15T13:14:47.503Z,16.23
2023-04-15T13:17:13.836Z,16.17
2023-04-15T13:19:40.091Z,16.18
2023-04-15T13:22:06.946Z,16.22
2023-04-15T13:24:33.356Z,16.15
2023-04-15T13:26:59.576Z,16.17
2023-04-15T13:29:25.876Z,16.20
2023-04-15T13:31:52.397Z,16.37
2023-04-15T13:34:18.753Z,17.27
2023-04-15T13:36:45.167Z,19.19
2023-04-15T13:39:11.541Z,21.20
2023-04-15T13:41:37.766Z,23.09
2023-04-15T13:44:04.408Z,25.19
2023-04-15T13:46:30.855Z,26.91
2023-04-15T13:48:57.090Z,27.01
2023-04-15T13:51:23.462Z,26.16
2023-04-15T13:53:49.779Z,25.27
2023-04-15T13:56:16.115Z,24.28
2023-04-15T13:58:42.532Z,23.28
2023-04-15T14:01:09.113Z,22.33
2023-04-15T14:03:35.548Z,21.57
2023-04-15T14:06:02.315Z,20.94
2023-04-15T14:08:29.715Z,20.47
2023-04-15T14:10:55.986Z,20.31
2023-04-15T14:13:25.170Z,20.26
2023-04-15T14:15:51.845Z,20.65
2023-04-15T14:18:18.173Z,21.61
2023-04-15T14:20:44.813Z,22.89
2023-04-15T14:23:11.531Z,24.70
2023-04-15T14:25:37.823Z,25.95
2023-04-15T14:28:04.448Z,26.36
2023-04-15T14:30:31.127Z,27.12
2023-04-15T14:32:57.470Z,27.88
2023-04-15T14:35:23.872Z,27.42
2023-04-15T14:37:50.957Z,26.86
2023-04-15T14:40:17.372Z,26.43
2023-04-15T14:42:43.685Z,26.09
2023-04-15T14:45:11.081Z,25.34
2023-04-15T14:47:37.452Z,24.32
2023-04-15T14:50:03.983Z,23.45
2023-04-15T14:52:31.150Z,22.35
2023-04-15T14:54:57.466Z,21.14
2023-04-15T14:57:23.938Z,20.03
2023-04-15T14:59:50.332Z,19.14
2023-04-15T15:02:31.647Z,18.46
2023-04-15T15:05:04.032Z,17.91
2023-04-15T15:07:30.433Z,17.48
2023-04-15T15:09:56.705Z,17.03
2023-04-15T15:12:23.006Z,16.65
2023-04-15T15:14:49.433Z,16.36
2023-04-15T15:17:15.877Z,16.21
2023-04-15T15:19:42.485Z,16.30
2023-04-15T15:22:08.743Z,16.59
2023-04-15T15:24:34.995Z,17.06
2023-04-15T15:27:01.757Z,17.84
2023-04-15T15:29:28.084Z,18.98
2023-04-15T15:31:54.448Z,20.10
2023-04-15T15:34:21.106Z,20.07
2023-04-15T15:36:47.761Z,19.32
2023-04-15T15:39:14.069Z,18.58
2023-04-15T15:41:40.744Z,17.95
2023-04-15T15:44:07.023Z,17.33
2023-04-15T15:46:33.321Z,16.72
2023-04-15T15:49:01.535Z,16.20
2023-04-15T15:51:27.887Z,15.79
2023-04-15T15:53:54.161Z,15.48
2023-04-15T15:56:20.720Z,15.26
2023-04-15T15:58:47.081Z,15.06
2023-04-15T16:01:13.460Z,14.91
2023-04-15T16:03:40.001Z,14.80
2023-04-15T16:06:06.369Z,14.70
2023-04-15T16:08:32.637Z,14.64
2023-04-15T16:10:59.336Z,14.56
2023-04-15T16:13:25.762Z,14.44
2023-04-15T16:15:52.060Z,14.32
2023-04-15T16:18:18.530Z,14.19
2023-04-15T16:20:44.944Z,14.06
2023-04-15T16:23:12.750Z,13.96
2023-04-15T16:25:40.389Z,13.89
2023-04-15T16:28:18.496Z,13.84
2023-04-15T16:30:49.417Z,13.83
2023-04-15T16:33:15.749Z,13.83
2023-04-15T16:35:42.012Z,13.82
2023-04-15T16:38:08.488Z,13.84
2023-04-15T16:40:36.057Z,13.84
2023-04-15T16:43:02.777Z,13.74
2023-04-15T16:45:29.086Z,13.65
2023-04-15T16:47:55.420Z,13.54
2023-04-15T16:50:22.006Z,13.46
2023-04-15T16:56:16.876Z,13.26
2023-04-15T16:58:43.580Z,13.17
2023-04-15T17:01:09.990Z,13.09
2023-04-15T17:03:36.706Z,13.04
2023-04-15T17:06:03.815Z,13.04
2023-04-15T17:08:30.368Z,13.06
2023-04-15T17:11:00.225Z,13.13
2023-04-15T17:13:26.645Z,13.19
2023-04-15T17:15:55.624Z,13.20
2023-04-15T17:18:24.050Z,13.17
2023-04-15T17:21:03.352Z,13.12
2023-04-15T17:23:29.866Z,13.02
2023-04-15T17:25:57.375Z,12.91
2023-04-15T17:28:24.106Z,12.77
2023-04-15T17:30:53.013Z,12.48
2023-04-15T18:01:59.507Z,9.83
2023-04-15T18:04:26.896Z,9.81
2023-04-15T18:06:53.889Z,9.80
2023-04-15T18:09:20.853Z,9.78
2023-04-15T18:11:47.199Z,9.81
2023-04-15T18:14:33.033Z,9.83
2023-04-15T18:17:10.587Z,9.78
2023-04-15T18:19:36.946Z,9.71
2023-04-15T18:22:04.878Z,9.65
2023-04-15T18:24:32.130Z,9.62
2023-04-15T18:26:58.470Z,9.61
2023-04-15T18:29:27.290Z,9.61
2023-04-15T18:31:54.475Z,9.61
2023-04-15T18:34:23.861Z,9.63
2023-04-15T18:36:50.274Z,9.64
2023-04-15T18:39:17.074Z,9.65
2023-04-15T18:41:43.743Z,9.64
2023-04-15T18:44:10.232Z,9.63
2023-04-15T18:46:37.017Z,9.61
2023-04-15T18:49:03.988Z,9.60
2023-04-15T18:51:30.747Z,9.57
2023-04-15T18:53:57.771Z,9.52
2023-04-15T18:56:24.748Z,9.51
2023-04-15T18:59:28.559Z,9.49
2023-04-15T19:01:44.746Z,9.48
2023-04-15T19:04:11.937Z,9.48
2023-04-15T19:06:56.250Z,9.47
2023-04-15T19:09:22.861Z,9.47
2023-04-15T19:11:49.254Z,9.45
2023-04-15T19:14:16.453Z,9.43
2023-04-15T19:19:32.072Z,9.31
2023-04-15T19:22:02.557Z,9.20
2023-04-15T19:24:35.667Z,9.10
2023-04-15T19:27:02.181Z,9.04
2023-04-15T19:29:29.046Z,8.99
2023-04-15T19:32:01.452Z,8.96
2023-04-15T19:34:27.970Z,8.93
2023-04-15T19:36:54.480Z,8.87
2023-04-15T19:39:21.296Z,8.82
2023-04-15T19:41:48.104Z,8.81
2023-04-15T19:44:16.031Z,8.81
2023-04-15T19:46:43.586Z,8.80
2023-04-15T19:49:10.232Z,8.79
2023-04-15T19:51:37.675Z,8.76
2023-04-15T19:54:04.323Z,8.73
2023-04-15T19:56:32.843Z,8.73
2023-04-15T19:59:01.046Z,8.71
2023-04-15T20:01:27.548Z,8.67
2023-04-15T20:03:54.184Z,8.63
2023-04-15T20:06:21.940Z,8.60
2023-04-15T20:08:48.306Z,8.60
2023-04-15T20:11:15.179Z,8.59
2023-04-15T20:13:41.664Z,8.57
2023-04-15T20:21:59.072Z,8.39
2023-04-15T20:24:30.552Z,8.30
2023-04-15T20:26:57.140Z,8.21
2023-04-15T20:29:23.517Z,8.12
2023-04-15T20:31:49.952Z,8.04
2023-04-15T20:34:16.462Z,7.97
2023-04-15T20:36:42.920Z,7.91
2023-04-15T20:39:09.349Z,7.83
2023-04-15T20:41:36.033Z,7.76
2023-04-15T20:44:05.535Z,7.70
2023-04-15T20:46:44.423Z,7.64
2023-04-15T20:49:10.803Z,7.59
2023-04-15T20:51:40.433Z,7.57
2023-04-15T20:54:14.108Z,7.53
2023-04-15T20:56:40.858Z,7.50
2023-04-15T20:59:07.735Z,7.48
2023-04-15T21:01:35.542Z,7.46
2023-04-15T21:04:01.956Z,7.45
2023-04-15T21:06:28.413Z,7.43
2023-04-15T21:08:54.858Z,7.41
2023-04-15T21:11:40.621Z,7.40
2023-04-15T21:14:07.561Z,7.37
2023-04-15T21:16:34.060Z,7.36
2023-04-15T21:19:00.401Z,7.31
2023-04-15T21:21:26.982Z,7.24
2023-04-15T21:23:54.777Z,7.18
2023-04-15T21:26:21.036Z,7.13
2023-04-15T21:28:47.312Z,7.09
2023-04-15T21:31:13.755Z,7.06
2023-04-15T21:33:40.045Z,7.05
2023-04-15T21:36:06.572Z,7.03
2023-04-15T21:38:33.042Z,7.01
2023-04-15T21:40:59.335Z,6.99
2023-04-15T21:43:25.803Z,6.97
2023-04-15T21:46:22.418Z,6.94
2023-04-15T21:48:38.959Z,6.91
2023-04-15T21:51:05.587Z,6.89
2023-04-15T21:53:31.927Z,6.88
2023-04-15T21:55:58.250Z,6.87
2023-04-15T21:58:24.541Z,6.84
2023-04-15T22:00:51.428Z,6.83
2023-04-15T22:03:17.802Z,6.80
2023-04-15T22:05:44.721Z,6.76
2023-04-15T22:08:11.262Z,6.71
2023-04-15T22:10:37.981Z,6.66
2023-04-15T22:13:04.847Z,6.59
2023-04-15T22:15:31.110Z,6.52
2023-04-15T22:17:57.518Z,6.45
2023-04-15T22:20:23.865Z,6.37
2023-04-15T22:22:50.166Z,6.32
2023-04-15T22:25:21.029Z,6.28
2023-04-15T22:27:47.334Z,6.25
2023-04-15T22:30:13.647Z,6.22
2023-04-15T22:32:40.125Z,6.20
2023-04-15T22:35:06.759Z,6.17
2023-04-15T22:37:33.062Z,6.16
2023-04-15T22:39:59.500Z,6.13
2023-04-15T22:42:25.930Z,6.08
2023-04-15T22:44:52.226Z,6.01
2023-04-15T22:47:18.826Z,5.95
2023-04-15T22:49:45.139Z,5.93
2023-04-15T22:52:17.159Z,5.94
2023-04-15T22:54:50.036Z,5.96
2023-04-15T22:57:16.495Z,5.96
2023-04-15T22:59:42.733Z,5.96
2023-04-15T23:02:09.153Z,5.96
2023-04-15T23:04:35.613Z,5.96
2023-04-15T23:07:02.007Z,5.92
2023-04-15T23:09:28.330Z,5.84
2023-04-15T23:11:54.787Z,5.76
2023-04-15T23:14:22.343Z,5.73
2023-04-15T23:16:48.684Z,5.72
2023-04-15T23:19:14.976Z,5.72
2023-04-15T23:21:41.231Z,5.74
2023-04-15T23:24:07.555Z,5.75
2023-04-15T23:26:33.978Z,5.76
2023-04-15T23:29:00.318Z,5.79
2023-04-15T23:31:26.702Z,5.81
2023-04-15T23:33:52.996Z,5.80
2023-04-15T23:36:19.294Z,5.80
2023-04-15T23:38:45.586Z,5.81
2023-04-15T23:41:11.818Z,5.81
2023-04-15T23:43:38.121Z,5.82
2023-04-15T23:46:04.643Z,5.83
2023-04-15T23:48:30.873Z,5.83
2023-04-15T23:50:57.197Z,5.81
2023-04-15T23:53:23.481Z,5.79
2023-04-15T23:55:49.705Z,5.78
2023-04-15T23:58:15.978Z,5.79
